createdAt,value
2019-03-20T00:05:03.756Z,56.70
2019-03-20T00:10:08.606Z,56.80
2019-03-20T00:15:12.777Z,56.80
2019-03-20T00:20:16.687Z,56.70
2019-03-20T00:25:20.548Z,56.40
2019-03-20T00:30:24.460Z,56.30
2019-03-20T00:35:28.575Z,56.20
2019-03-20T00:40:32.448Z,56.40
2019-03-20T00:45:36.631Z,56.00
2019-03-20T00:50:41.056Z,56.10
2019-03-20T00:55:44.923Z,56.50
2019-03-20T01:00:49.063Z,56.40
2019-03-20T01:05:52.979Z,56.60
2019-03-20T01:10:56.819Z,56.50
2019-03-20T01:16:01.076Z,56.90
2019-03-20T01:21:05.087Z,56.70
2019-03-20T01:26:09.187Z,56.60
2019-03-20T01:31:13.127Z,57.20
2019-03-20T01:36:17.253Z,56.80
2019-03-20T01:41:21.091Z,57.00
2019-03-20T01:46:25.208Z,57.00
2019-03-20T01:51:29.577Z,56.80
2019-03-20T01:56:33.856Z,56.90
2019-03-20T02:01:37.730Z,56.80
2019-03-20T02:06:41.823Z,56.80
2019-03-20T02:11:45.810Z,56.80
2019-03-20T02:16:49.960Z,56.80
2019-03-20T02:21:53.882Z,56.70
2019-03-20T02:26:58.056Z,56.90
2019-03-20T02:32:02.275Z,56.70
2019-03-20T02:37:06.516Z,56.90
2019-03-20T02:42:10.893Z,56.70
2019-03-20T02:47:15.545Z,56.70
2019-03-20T02:52:19.766Z,56.50
2019-03-20T02:57:24.137Z,56.70
2019-03-20T03:02:28.250Z,56.90
2019-03-20T03:07:32.198Z,56.70
2019-03-20T03:12:36.145Z,56.50
2019-03-20T03:17:40.344Z,56.50
2019-03-20T03:22:44.623Z,56.80
2019-03-20T03:27:48.865Z,56.60
2019-03-20T03:32:53.020Z,56.50
2019-03-20T03:37:57.015Z,56.70
2019-03-20T03:43:00.872Z,57.10
2019-03-20T03:48:04.917Z,57.10
2019-03-20T03:53:09.039Z,57.30
2019-03-20T03:58:13.161Z,57.30
2019-03-20T04:03:17.260Z,57.30
2019-03-20T04:08:21.707Z,56.90
2019-03-20T04:13:25.632Z,57.00
2019-03-20T04:18:29.776Z,56.60
2019-03-20T04:23:34.212Z,56.50
2019-03-20T04:28:38.736Z,56.40
2019-03-20T04:33:42.684Z,56.70
2019-03-20T04:38:46.940Z,57.00
2019-03-20T04:43:50.955Z,57.00
2019-03-20T04:48:54.834Z,56.90
2019-03-20T04:53:58.955Z,56.70
2019-03-20T04:59:03.096Z,56.70
2019-03-20T05:04:07.399Z,56.50
2019-03-20T05:09:11.531Z,56.60
2019-03-20T05:14:15.578Z,57.00
2019-03-20T05:19:19.872Z,57.00
2019-03-20T05:24:24.003Z,56.90
2019-03-20T05:29:28.219Z,57.00
2019-03-20T05:34:32.753Z,57.10
2019-03-20T05:39:36.937Z,57.20
2019-03-20T05:44:41.218Z,57.50
2019-03-20T05:49:45.748Z,57.50
2019-03-20T05:54:49.744Z,57.50
2019-03-20T05:59:53.681Z,57.50
2019-03-20T06:04:57.664Z,57.50
2019-03-20T06:10:01.614Z,57.70
2019-03-20T06:15:05.922Z,57.50
2019-03-20T06:20:10.073Z,57.70
2019-03-20T06:25:14.078Z,57.60
2019-03-20T06:30:18.094Z,57.90
2019-03-20T06:35:21.962Z,58.00
2019-03-20T06:40:25.945Z,57.50
2019-03-20T06:45:30.187Z,57.70
2019-03-20T06:50:34.519Z,57.90
2019-03-20T06:55:38.573Z,57.70
2019-03-20T07:01:10.131Z,58.10
2019-03-20T07:06:31.328Z,57.80
2019-03-20T07:11:39.278Z,58.70
2019-03-20T07:16:43.501Z,58.10
2019-03-20T07:21:47.411Z,58.00
2019-03-20T07:26:51.268Z,58.20
2019-03-20T07:31:55.276Z,58.30
2019-03-20T07:36:59.540Z,58.60
2019-03-20T07:42:03.587Z,58.20
2019-03-20T07:47:07.819Z,58.30
2019-03-20T07:52:12.190Z,58.10
2019-03-20T07:57:16.074Z,58.00
2019-03-20T08:02:20.209Z,58.20
2019-03-20T08:07:24.214Z,58.10
2019-03-20T08:12:28.227Z,58.20
2019-03-20T08:17:32.407Z,58.30
2019-03-20T08:22:36.274Z,58.20
2019-03-20T08:27:40.137Z,58.30
2019-03-20T08:32:44.399Z,58.20
2019-03-20T08:37:48.843Z,58.50
2019-03-20T08:42:52.884Z,58.30
2019-03-20T08:47:56.894Z,58.70
2019-03-20T08:53:01.839Z,58.70
2019-03-20T08:58:05.842Z,58.50
2019-03-20T09:03:09.723Z,58.60
2019-03-20T09:08:14.027Z,58.20
2019-03-20T09:13:17.966Z,58.20
2019-03-20T09:18:21.939Z,58.20
2019-03-20T09:23:25.840Z,58.00
2019-03-20T09:28:30.067Z,58.10
2019-03-20T09:33:34.343Z,58.30
2019-03-20T09:38:43.388Z,58.30
2019-03-20T09:43:43.967Z,57.20
2019-03-20T09:48:48.166Z,57.30
2019-03-20T09:53:52.142Z,58.00
2019-03-20T09:58:56.014Z,57.10
2019-03-20T10:04:00.203Z,57.30
2019-03-20T10:09:06.536Z,57.40
2019-03-20T10:14:10.548Z,57.40
2019-03-20T10:19:14.426Z,57.60
2019-03-20T10:24:18.390Z,57.60
2019-03-20T10:29:22.407Z,57.70
2019-03-20T10:34:26.607Z,57.70
2019-03-20T10:39:30.675Z,57.70
2019-03-20T10:44:34.823Z,57.80
2019-03-20T10:49:38.813Z,57.90
2019-03-20T10:54:42.826Z,58.10
2019-03-20T10:59:47.826Z,57.90
2019-03-20T11:04:52.592Z,57.90
2019-03-20T11:09:57.113Z,58.00
2019-03-20T11:15:01.063Z,58.00
2019-03-20T11:20:06.070Z,58.30
2019-03-20T11:25:11.183Z,58.30
2019-03-20T11:30:21.058Z,58.50
2019-03-20T11:35:25.386Z,58.50
2019-03-20T11:40:29.741Z,58.40
2019-03-20T11:45:34.021Z,59.80
2019-03-20T11:50:38.385Z,64.80
2019-03-20T11:55:42.666Z,64.70
2019-03-20T12:00:46.691Z,62.80
2019-03-20T12:05:51.048Z,58.70
2019-03-20T12:10:54.927Z,60.80
2019-03-20T12:15:58.812Z,61.00
2019-03-20T12:21:03.131Z,59.80
2019-03-20T12:26:07.247Z,59.60
2019-03-20T12:31:11.476Z,59.40
2019-03-20T12:36:15.427Z,59.20
2019-03-20T12:41:19.628Z,59.20
2019-03-20T12:46:23.706Z,59.20
2019-03-20T12:51:27.640Z,59.10
2019-03-20T12:56:31.774Z,58.70
2019-03-20T13:01:36.035Z,58.90
2019-03-20T13:06:43.324Z,60.70
2019-03-20T13:11:47.327Z,61.60
2019-03-20T13:16:51.587Z,60.70
2019-03-20T13:21:55.951Z,60.00
2019-03-20T13:26:59.995Z,59.70
2019-03-20T13:32:04.035Z,59.80
2019-03-20T13:37:08.324Z,59.60
2019-03-20T13:42:12.362Z,59.50
2019-03-20T13:47:17.035Z,59.30
2019-03-20T13:52:21.151Z,59.50
2019-03-20T13:57:25.581Z,59.30
2019-03-20T14:02:29.914Z,59.40
2019-03-20T14:07:34.036Z,59.20
2019-03-20T14:12:38.232Z,59.30
2019-03-20T14:17:42.697Z,59.30
2019-03-20T14:22:46.832Z,59.60
2019-03-20T14:27:51.036Z,59.50
2019-03-20T14:32:55.451Z,59.30
2019-03-20T14:37:59.475Z,59.50
2019-03-20T14:43:04.225Z,59.40
2019-03-20T14:48:08.805Z,58.40
2019-03-20T14:53:12.979Z,58.80
2019-03-20T14:58:17.561Z,58.70
2019-03-20T15:03:40.773Z,58.60
2019-03-20T15:08:45.447Z,58.00
2019-03-20T15:13:49.618Z,58.20
2019-03-20T15:18:53.855Z,57.90
2019-03-20T15:23:58.367Z,57.80
2019-03-20T15:29:02.235Z,58.00
2019-03-20T15:34:06.466Z,58.90
2019-03-20T15:39:10.691Z,59.00
2019-03-20T15:44:14.953Z,58.30
2019-03-20T15:49:19.138Z,57.50
2019-03-20T15:54:24.334Z,57.90
2019-03-20T15:59:29.101Z,57.50
2019-03-20T16:04:33.166Z,57.80
2019-03-20T16:09:37.126Z,56.20
2019-03-20T16:14:41.018Z,57.60
2019-03-20T16:19:45.044Z,57.50
2019-03-20T16:24:48.967Z,57.20
2019-03-20T16:29:53.148Z,57.20
2019-03-20T16:34:57.832Z,56.40
2019-03-20T16:40:01.767Z,56.10
2019-03-20T16:45:07.030Z,56.00
2019-03-20T16:50:12.283Z,55.50
2019-03-20T16:55:16.334Z,56.00
2019-03-20T17:00:25.070Z,55.40
2019-03-20T17:05:29.103Z,55.90
2019-03-20T17:10:35.268Z,55.30
2019-03-20T17:15:39.295Z,55.00
2019-03-20T17:20:43.324Z,55.10
2019-03-20T17:25:47.566Z,55.00
2019-03-20T17:30:51.666Z,54.80
2019-03-20T17:35:56.027Z,54.60
2019-03-20T17:41:00.442Z,54.70
2019-03-20T17:46:04.855Z,54.40
2019-03-20T17:51:09.242Z,54.50
2019-03-20T17:56:13.526Z,54.40
2019-03-20T18:01:17.744Z,54.60
2019-03-20T18:06:21.710Z,54.50
2019-03-20T18:11:25.854Z,54.40
2019-03-20T18:16:29.975Z,53.30
2019-03-20T18:21:34.095Z,52.20
2019-03-20T18:26:38.055Z,53.00
2019-03-20T18:31:46.063Z,52.90
2019-03-20T18:36:48.243Z,52.90
2019-03-20T18:41:57.812Z,56.20
2019-03-20T18:46:58.039Z,56.10
2019-03-20T18:52:02.156Z,55.10
2019-03-20T18:57:06.171Z,54.20
2019-03-20T19:02:10.435Z,53.90
